Time;durP1;ratioP1;P1;durP2;ratioP2;P2;SDS_P1;SDS_P2;PMS_P1;PMS_P2;Temp;Humidity;BMP_temperature;BMP_pressure;BME280_temperature;BME280_humidity;BME280_pressure;Samples;Min_cycle;Max_cycle;Signal;HPM_P1;HPM_P2
2023/04/03 00:00:42;;;;;;;3.20;3.00;;;;;;;8.75;66.96;94454.84;4993621;28;20291;-67
2023/04/03 00:03:09;;;;;;;4.20;2.47;;;;;;;8.76;67.14;94442.13;4992118;28;20235;-68
2023/04/03 00:05:37;;;;;;;3.53;3.00;;;;;;;8.82;66.51;94448.69;4996499;28;20230;-66
2023/04/03 00:08:07;;;;;;;2.70;2.50;;;;;;;8.80;67.35;94435.25;4996403;28;20312;-66
2023/04/03 00:10:34;;;;;;;3.20;2.90;;;;;;;8.87;66.99;94434.16;4996361;28;20212;-66
2023/04/03 00:13:01;;;;;;;3.60;2.90;;;;;;;8.86;66.72;94430.81;4997203;28;20335;-66
2023/04/03 00:15:27;;;;;;;2.70;2.40;;;;;;;8.92;66.86;94423.81;4996439;28;20379;-67
2023/04/03 00:17:54;;;;;;;2.50;1.92;;;;;;;8.85;66.82;94424.09;4997525;28;20304;-66
2023/04/03 00:20:21;;;;;;;2.53;2.33;;;;;;;8.75;66.97;94414.31;4994921;28;20288;-67
2023/04/03 00:22:50;;;;;;;3.65;2.75;;;;;;;8.70;67.68;94429.69;4995470;28;20824;-67
2023/04/03 00:25:17;;;;;;;2.92;2.40;;;;;;;8.65;67.22;94425.69;4996162;28;20259;-67
2023/04/03 00:27:43;;;;;;;8.00;3.03;;;;;;;8.64;67.18;94429.94;4995394;28;20322;-66
2023/04/03 00:30:15;;;;;;;3.90;2.80;;;;;;;8.70;67.14;94429.69;4996639;28;20343;-66
2023/04/03 00:32:41;;;;;;;2.60;2.40;;;;;;;8.73;66.89;94428.75;4993862;28;20749;-66
2023/04/03 00:35:10;;;;;;;2.38;2.13;;;;;;;8.74;67.48;94426.16;4993243;28;20295;-67
2023/04/03 00:37:36;;;;;;;2.42;2.20;;;;;;;8.68;67.46;94428.91;4993775;28;20295;-65
2023/04/03 00:40:07;;;;;;;4.63;2.65;;;;;;;8.65;67.76;94441.72;4993587;28;20265;-66
2023/04/03 00:42:33;;;;;;;2.72;2.47;;;;;;;8.60;67.19;94433.47;4992730;28;20283;-67
2023/04/03 00:45:33;;;;;;;3.00;1.90;;;;;;;8.52;67.76;94436.25;4993157;28;20270;-65
2023/04/03 00:48:02;;;;;;;3.40;2.65;;;;;;;8.51;68.10;94436.31;4994477;28;20215;-66
2023/04/03 00:50:31;;;;;;;2.47;2.28;;;;;;;8.61;67.66;94440.16;4994543;28;20209;-67
2023/04/03 00:52:59;;;;;;;3.15;2.65;;;;;;;8.62;67.67;94438.47;4995137;28;20239;-65
2023/04/03 00:55:28;;;;;;;4.45;2.60;;;;;;;8.56;67.93;94431.91;4996727;28;20283;-66
2023/04/03 00:57:56;;;;;;;3.83;2.40;;;;;;;8.51;67.99;94437.13;4996102;28;20645;-67
2023/04/03 01:00:25;;;;;;;3.88;3.00;;;;;;;8.39;68.35;94436.75;4995714;28;20275;-66
2023/04/03 01:02:52;;;;;;;3.58;2.90;;;;;;;8.34;68.93;94451.28;4995956;28;20212;-67
2023/04/03 01:05:22;;;;;;;4.07;2.90;;;;;;;8.25;68.46;94441.41;4995117;28;20286;-65
2023/04/03 01:07:50;;;;;;;5.25;3.13;;;;;;;8.34;68.56;94441.16;4995253;28;20211;-66
2023/04/03 01:10:19;;;;;;;3.17;2.67;;;;;;;8.30;68.22;94439.56;4996306;28;20336;-67
2023/04/03 01:12:50;;;;;;;3.20;2.90;;;;;;;8.22;68.90;94441.53;4997956;28;20710;-67
2023/04/03 01:15:20;;;;;;;4.18;2.30;;;;;;;8.32;68.52;94445.41;4999723;28;20246;-66
2023/04/03 01:17:48;;;;;;;2.80;2.05;;;;;;;8.31;68.41;94448.81;5000558;28;20210;-66
2023/04/03 01:20:45;;;;;;;2.38;2.28;;;;;;;8.17;69.10;94447.56;4999494;28;20216;-68
2023/04/03 01:23:26;;;;;;;3.25;2.63;;;;;;;8.13;68.93;94453.63;4997689;28;20662;-67
2023/04/03 01:25:56;;;;;;;3.72;3.38;;;;;;;8.05;68.93;94450.53;4997585;28;20242;-68
2023/04/03 01:28:26;;;;;;;2.83;2.63;;;;;;;8.10;68.70;94453.72;4996866;28;20359;-67
2023/04/03 01:31:01;;;;;;;5.43;3.30;;;;;;;8.11;68.57;94445.25;4995012;28;20258;-67
2023/04/03 01:33:29;;;;;;;3.92;3.63;;;;;;;8.20;68.66;94442.41;4994632;28;20764;-67
2023/04/03 01:35:56;;;;;;;4.90;3.92;;;;;;;8.22;69.75;94454.19;4997467;28;20266;-68
2023/04/03 01:38:23;;;;;;;4.68;3.92;;;;;;;8.04;69.40;94453.94;4993248;28;20358;-67
2023/04/03 01:40:50;;;;;;;8.48;4.55;;;;;;;8.01;69.54;94443.91;4995283;28;20405;-68
2023/04/03 01:43:17;;;;;;;4.45;4.05;;;;;;;8.06;69.92;94437.00;4995758;28;20278;-66
2023/04/03 01:45:44;;;;;;;4.07;3.75;;;;;;;8.06;69.36;94433.63;4996982;28;20783;-67
2023/04/03 01:48:10;;;;;;;4.32;3.92;;;;;;;7.96;69.90;94437.34;4997794;28;20623;-67
2023/04/03 01:50:38;;;;;;;4.68;3.75;;;;;;;8.03;69.89;94442.16;4997455;28;20343;-67
2023/04/03 01:53:05;;;;;;;3.88;3.55;;;;;;;7.96;70.21;94434.81;4995180;28;20708;-67
2023/04/03 01:55:32;;;;;;;4.38;3.90;;;;;;;7.80;70.85;94439.56;4997746;28;20740;-67
2023/04/03 01:57:58;;;;;;;4.55;3.50;;;;;;;7.73;70.61;94449.03;4994916;28;20596;-67
2023/04/03 02:00:26;;;;;;;4.07;2.95;;;;;;;7.69;71.08;94451.72;4996476;28;20655;-67
2023/04/03 02:02:53;;;;;;;5.57;3.17;;;;;;;7.72;71.05;94451.63;4994341;28;20227;-65
2023/04/03 02:05:19;;;;;;;4.85;3.45;;;;;;;7.69;71.96;94446.66;4999461;28;20319;-67
2023/04/03 02:07:47;;;;;;;5.70;3.15;;;;;;;7.69;71.49;94441.59;5000209;28;20658;-66
2023/04/03 02:10:14;;;;;;;11.35;3.42;;;;;;;7.68;71.58;94440.78;4998777;28;20235;-67
2023/04/03 02:12:41;;;;;;;4.10;2.95;;;;;;;7.77;70.85;94439.66;4997939;28;20785;-67
2023/04/03 02:15:09;;;;;;;6.25;3.03;;;;;;;7.78;71.05;94442.13;4997703;28;20208;-67
2023/04/03 02:17:36;;;;;;;5.40;3.08;;;;;;;7.77;70.85;94442.19;4999373;28;20293;-67
2023/04/03 02:20:04;;;;;;;4.63;2.70;;;;;;;7.79;71.50;94440.44;4999502;28;20236;-67
2023/04/03 02:22:30;;;;;;;4.47;2.92;;;;;;;7.72;71.21;94439.81;4998319;28;20599;-67
2023/04/03 02:24:59;;;;;;;3.60;3.38;;;;;;;7.76;70.72;94443.06;5000132;28;20322;-67
2023/04/03 02:27:25;;;;;;;4.90;3.30;;;;;;;7.68;72.29;94435.72;4998017;28;20411;-68
2023/04/03 02:29:52;;;;;;;6.57;3.50;;;;;;;7.64;71.07;94431.66;4999802;28;20285;-67
2023/04/03 02:32:19;;;;;;;3.35;3.15;;;;;;;7.86;70.90;94429.25;4998888;28;20299;-66
2023/04/03 02:34:45;;;;;;;4.07;2.90;;;;;;;7.89;71.23;94429.16;4999290;28;20612;-66
2023/04/03 02:37:12;;;;;;;2.58;2.38;;;;;;;7.85;71.10;94428.41;4999333;28;20291;-67
2023/04/03 02:39:39;;;;;;;2.80;2.60;;;;;;;7.75;71.50;94422.00;4998947;28;20263;-66
2023/04/03 02:42:08;;;;;;;3.20;2.90;;;;;;;7.62;72.72;94425.00;4999008;28;20239;-67
2023/04/03 02:44:35;;;;;;;4.68;2.80;;;;;;;7.58;71.91;94424.25;5000006;28;20824;-67
2023/04/03 02:47:02;;;;;;;3.58;2.13;;;;;;;7.57;72.52;94426.84;4999442;28;20228;-67
2023/04/03 02:49:29;;;;;;;6.22;2.95;;;;;;;7.58;72.58;94413.31;4999241;28;20247;-67
2023/04/03 02:51:56;;;;;;;3.08;2.78;;;;;;;7.62;72.67;94417.41;4998661;28;20208;-67
2023/04/03 02:54:23;;;;;;;4.57;2.83;;;;;;;7.57;71.80;94411.66;4998808;28;20262;-67
2023/04/03 02:56:50;;;;;;;3.45;2.90;;;;;;;7.41;72.60;94408.81;4998449;28;20572;-67
2023/04/03 02:59:18;;;;;;;5.05;2.78;;;;;;;7.47;72.93;94417.00;4997533;28;20327;-67
2023/04/03 03:01:45;;;;;;;3.10;2.70;;;;;;;7.49;72.35;94422.84;4997985;28;20319;-67
2023/04/03 03:04:11;;;;;;;3.13;2.67;;;;;;;7.45;72.93;94413.69;4999800;28;20303;-67
2023/04/03 03:06:38;;;;;;;3.22;2.42;;;;;;;7.40;73.04;94410.50;4999057;28;20311;-67
2023/04/03 03:09:05;;;;;;;6.07;3.05;;;;;;;7.43;73.57;94414.63;4998055;28;20641;-67
2023/04/03 03:11:32;;;;;;;3.53;3.05;;;;;;;7.36;73.67;94408.94;4997955;28;20751;-67
2023/04/03 03:13:59;;;;;;;3.50;3.05;;;;;;;7.35;73.29;94406.47;4998655;28;20319;-66
2023/04/03 03:16:27;;;;;;;5.95;4.15;;;;;;;7.30;73.06;94411.66;4998750;28;20290;-66
2023/04/03 03:18:54;;;;;;;4.63;3.40;;;;;;;7.30;73.22;94409.13;4998827;28;20278;-67
2023/04/03 03:21:20;;;;;;;6.78;4.25;;;;;;;7.28;73.22;94405.84;4998894;28;20240;-67
2023/04/03 03:23:47;;;;;;;10.50;3.65;;;;;;;7.27;72.96;94396.59;4998784;28;20631;-66
2023/04/03 03:26:14;;;;;;;4.45;4.03;;;;;;;7.29;73.40;94404.97;4999289;28;20794;-67
2023/04/03 03:28:41;;;;;;;9.73;3.67;;;;;;;7.30;73.74;94401.56;4998303;28;20248;-67
2023/04/03 03:31:09;;;;;;;6.90;3.58;;;;;;;7.30;73.80;94406.63;4998695;28;20204;-67
2023/04/03 03:33:37;;;;;;;7.75;3.55;;;;;;;7.32;73.09;94404.88;4998871;28;20219;-67
2023/04/03 03:36:05;;;;;;;4.38;3.55;;;;;;;7.30;73.19;94406.63;4998924;28;20295;-67
2023/04/03 03:38:31;;;;;;;7.68;3.63;;;;;;;7.23;73.56;94406.84;4997671;28;20236;-69
2023/04/03 03:40:58;;;;;;;11.20;4.25;;;;;;;7.12;72.74;94410.53;4998230;28;20236;-67
2023/04/03 03:43:25;;;;;;;9.88;4.28;;;;;;;7.14;73.69;94418.06;4998645;28;20240;-71
2023/04/03 03:45:53;;;;;;;6.50;3.60;;;;;;;7.16;73.68;94412.09;4998709;28;20323;-66
2023/04/03 03:48:20;;;;;;;10.77;4.38;;;;;;;7.14;73.86;94410.50;4999315;28;20208;-66
2023/04/03 03:50:48;;;;;;;6.80;4.25;;;;;;;7.17;74.17;94412.94;4998649;28;20230;-67
2023/04/03 03:53:15;;;;;;;6.15;3.78;;;;;;;7.11;74.19;94413.13;4998892;28;22048;-67
2023/04/03 03:55:42;;;;;;;6.32;4.07;;;;;;;7.13;73.92;94406.31;4998988;28;20208;-67
2023/04/03 03:58:10;;;;;;;8.05;4.30;;;;;;;7.15;73.85;94419.72;4998485;28;20235;-66
2023/04/03 04:00:37;;;;;;;8.23;4.32;;;;;;;7.13;73.72;94424.00;4997762;28;20212;-67
2023/04/03 04:03:04;;;;;;;5.30;4.60;;;;;;;7.17;73.58;94423.03;4998628;28;20208;-69
2023/04/03 04:05:31;;;;;;;4.63;4.22;;;;;;;7.23;73.75;94415.25;4997627;28;20604;-67
2023/04/03 04:07:59;;;;;;;6.22;5.53;;;;;;;7.23;73.47;94412.72;4998269;28;20232;-68
2023/04/03 04:10:26;;;;;;;16.02;8.73;;;;;;;7.24;73.58;94409.31;4998378;28;20651;-69
2023/04/03 04:12:53;;;;;;;17.80;10.82;;;;;;;7.18;73.68;94405.28;4998524;28;20227;-67
2023/04/03 04:15:21;;;;;;;20.63;12.75;;;;;;;7.21;73.19;94409.41;4997853;28;20650;-68
2023/04/03 04:17:48;;;;;;;15.45;8.50;;;;;;;7.25;73.21;94413.50;4998290;28;20216;-68
2023/04/03 04:20:15;;;;;;;15.05;8.65;;;;;;;7.26;72.54;94415.16;4997829;28;20307;-67
2023/04/03 04:22:41;;;;;;;14.82;8.70;;;;;;;7.28;73.50;94431.09;4998242;28;20738;-68
2023/04/03 04:25:10;;;;;;;18.00;9.40;;;;;;;7.31;73.68;94425.97;4998588;28;20228;-67
2023/04/03 04:27:36;;;;;;;9.10;7.97;;;;;;;7.51;73.12;94436.25;4997700;28;20231;-67
2023/04/03 04:30:04;;;;;;;16.55;7.00;;;;;;;7.66;72.72;94434.97;4997769;28;20221;-68
2023/04/03 04:32:31;;;;;;;10.95;7.95;;;;;;;7.87;71.82;94425.84;4998567;28;20243;-67
2023/04/03 04:34:58;;;;;;;22.08;8.07;;;;;;;8.02;71.21;94430.38;4996987;28;20306;-67
2023/04/03 04:37:24;;;;;;;12.95;7.30;;;;;;;8.08;70.91;94425.13;4998405;28;20280;-68
2023/04/03 04:39:51;;;;;;;39.92;19.30;;;;;;;8.04;70.78;94441.28;4997577;28;20276;-67
2023/04/03 04:42:19;;;;;;;22.70;13.35;;;;;;;8.04;70.61;94445.50;4998737;28;20690;-67
2023/04/03 04:44:46;;;;;;;15.95;9.68;;;;;;;8.08;70.77;94439.47;4997989;28;20346;-67
2023/04/03 04:47:13;;;;;;;18.42;9.52;;;;;;;8.20;70.66;94439.88;4997981;28;20295;-67
2023/04/03 04:49:39;;;;;;;21.63;8.38;;;;;;;8.43;69.43;94435.75;4997494;28;20295;-67
2023/04/03 04:52:06;;;;;;;17.75;8.02;;;;;;;8.46;69.62;94448.28;4997750;28;21894;-67
2023/04/03 04:54:33;;;;;;;14.68;8.50;;;;;;;8.55;69.24;94431.97;5000963;28;20306;-67
2023/04/03 04:56:59;;;;;;;10.77;8.27;;;;;;;8.68;69.17;94451.72;5001984;28;20285;-69
2023/04/03 04:59:27;;;;;;;9.75;8.07;;;;;;;8.84;69.03;94450.28;5002036;28;20232;-68
2023/04/03 05:01:54;;;;;;;14.45;8.50;;;;;;;8.90;67.85;94456.03;5001220;28;20228;-66
2023/04/03 05:04:21;;;;;;;12.70;9.05;;;;;;;9.03;67.17;94447.91;4999024;28;20855;-67
2023/04/03 05:06:48;;;;;;;15.20;9.43;;;;;;;9.13;66.84;94456.00;4999448;28;20757;-66
2023/04/03 05:09:15;;;;;;;15.80;9.07;;;;;;;9.16;66.62;94459.22;5000216;28;20322;-67
2023/04/03 05:11:42;;;;;;;22.55;8.63;;;;;;;9.25;66.16;94458.06;4999694;28;20208;-68
2023/04/03 05:14:09;;;;;;;14.45;9.05;;;;;;;9.16;66.39;94476.13;4999289;28;20208;-67
2023/04/03 05:16:37;;;;;;;19.73;10.60;;;;;;;9.11;66.17;94473.81;5000307;28;20702;-67
2023/04/03 05:19:04;;;;;;;36.03;12.75;;;;;;;9.11;65.03;94478.88;4999784;28;20717;-67
2023/04/03 05:21:31;;;;;;;26.58;13.35;;;;;;;9.04;65.95;94476.59;5001178;28;20210;-67
2023/04/03 05:23:59;;;;;;;33.50;13.85;;;;;;;9.05;65.99;94480.78;5000272;28;20212;-68
2023/04/03 05:26:26;;;;;;;29.67;12.95;;;;;;;9.34;65.63;94475.47;5000026;28;20593;-69
2023/04/03 05:28:53;;;;;;;31.42;13.32;;;;;;;9.48;64.71;94473.22;5001048;28;20817;-67
2023/04/03 05:31:20;;;;;;;31.58;12.93;;;;;;;9.58;64.12;94471.16;5001202;28;20298;-67
2023/04/03 05:33:48;;;;;;;20.95;11.05;;;;;;;9.75;64.18;94481.47;5001006;28;20248;-67
2023/04/03 05:36:15;;;;;;;27.92;10.70;;;;;;;9.96;62.83;94487.38;5000342;28;20291;-68
2023/04/03 05:38:42;;;;;;;21.83;9.77;;;;;;;10.14;62.17;94475.69;4999804;28;20239;-67
2023/04/03 05:41:08;;;;;;;20.98;9.70;;;;;;;10.31;61.43;94475.81;5000711;28;20204;-67
2023/04/03 05:43:37;;;;;;;16.80;8.27;;;;;;;10.50;60.58;94473.31;5000781;28;20243;-67
2023/04/03 05:46:04;;;;;;;12.15;7.40;;;;;;;10.63;60.40;94471.94;5000418;28;20326;-69
2023/04/03 05:48:31;;;;;;;19.55;9.18;;;;;;;10.69;60.25;94469.09;4999482;28;20243;-68
2023/04/03 05:50:59;;;;;;;16.83;9.40;;;;;;;10.77;59.86;94467.06;5000043;28;20208;-68
2023/04/03 05:53:29;;;;;;;29.52;12.70;;;;;;;10.81;59.26;94452.50;4999865;28;21107;-67
2023/04/03 05:55:55;;;;;;;38.15;17.92;;;;;;;10.91;59.01;94454.56;5000828;28;20295;-68
2023/04/03 05:58:22;;;;;;;54.30;17.77;;;;;;;11.15;58.70;94456.88;4999218;28;21473;-67
2023/04/03 06:00:49;;;;;;;33.20;17.13;;;;;;;11.36;58.04;94453.38;5000110;28;20282;-67
2023/04/03 06:03:16;;;;;;;55.85;20.85;;;;;;;11.52;57.72;94453.50;4998228;28;20583;-69
2023/04/03 06:05:43;;;;;;;38.60;15.88;;;;;;;11.68;56.77;94451.84;4999585;28;20320;-67
2023/04/03 06:08:12;;;;;;;27.98;12.65;;;;;;;11.67;57.17;94457.84;5001081;28;21355;-68
2023/04/03 06:10:39;;;;;;;25.52;12.93;;;;;;;11.77;56.83;94460.81;4999800;28;20208;-68
2023/04/03 06:13:06;;;;;;;41.97;16.42;;;;;;;11.87;56.51;94442.50;4999985;28;20208;-69
2023/04/03 06:15:33;;;;;;;45.83;16.42;;;;;;;12.15;55.43;94430.94;4999655;28;20768;-65
2023/04/03 06:18:00;;;;;;;38.78;14.93;;;;;;;12.15;55.69;94430.94;4999781;28;20204;-67
2023/04/03 06:20:27;;;;;;;28.40;12.13;;;;;;;12.17;55.29;94419.78;4998850;28;20780;-67
2023/04/03 06:22:54;;;;;;;17.05;9.65;;;;;;;12.17;55.48;94419.78;5000258;28;20232;-67
2023/04/03 06:25:22;;;;;;;20.60;9.48;;;;;;;12.31;55.09;94418.28;4999335;28;20313;-67
2023/04/03 06:27:49;;;;;;;19.80;10.00;;;;;;;12.52;54.40;94424.81;4999256;28;20620;-66
2023/04/03 06:30:16;;;;;;;15.43;10.75;;;;;;;12.71;54.05;94434.88;4998656;28;20211;-67
2023/04/03 06:32:42;;;;;;;15.50;8.10;;;;;;;13.11;52.81;94438.75;4999051;28;21621;-67
2023/04/03 06:35:11;;;;;;;15.13;8.48;;;;;;;13.33;52.54;94413.75;4998674;28;20236;-69
2023/04/03 06:37:37;;;;;;;12.82;9.38;;;;;;;13.61;51.68;94434.28;4999617;28;20299;-67
2023/04/03 06:40:05;;;;;;;15.95;9.48;;;;;;;13.72;51.16;94440.53;4997405;28;20290;-67
2023/04/03 06:42:33;;;;;;;18.33;10.27;;;;;;;13.63;51.70;94447.78;5000143;28;20909;-65
2023/04/03 06:45:00;;;;;;;16.83;9.43;;;;;;;13.63;51.70;94452.88;4998649;28;21628;-67
2023/04/03 06:47:27;;;;;;;13.45;8.43;;;;;;;13.66;51.75;94451.88;5000158;28;20720;-67
2023/04/03 06:49:53;;;;;;;13.05;9.55;;;;;;;13.60;51.70;94442.88;4998654;28;20216;-66
2023/04/03 06:52:20;;;;;;;28.17;10.38;;;;;;;13.52;52.59;94437.34;4998528;28;20295;-65
2023/04/03 06:54:47;;;;;;;20.23;10.07;;;;;;;13.59;51.72;94448.06;4999180;28;20511;-67
2023/04/03 06:57:15;;;;;;;17.55;9.65;;;;;;;13.58;52.35;94449.78;4998796;28;20697;-69
2023/04/03 06:59:43;;;;;;;24.60;11.13;;;;;;;13.54;52.43;94448.31;4999758;28;20662;-67
2023/04/03 07:02:12;;;;;;;20.73;10.18;;;;;;;13.51;52.00;94453.56;4998418;28;20760;-66
2023/04/03 07:04:39;;;;;;;25.60;10.13;;;;;;;13.50;52.31;94451.94;4998288;28;20740;-67
2023/04/03 07:07:06;;;;;;;22.08;11.07;;;;;;;13.57;52.20;94457.53;4999080;28;20315;-67
2023/04/03 07:09:33;;;;;;;36.92;18.98;;;;;;;13.75;52.20;94448.84;4999019;28;20235;-67
2023/04/03 07:11:59;;;;;;;22.70;16.35;;;;;;;13.93;51.87;94452.09;4997987;28;20749;-68
2023/04/03 07:14:26;;;;;;;26.30;10.27;;;;;;;14.09;51.64;94449.50;4998171;28;20210;-66
2023/04/03 07:16:54;;;;;;;12.57;9.43;;;;;;;14.17;51.69;94432.81;4999918;28;20228;-66
2023/04/03 07:19:21;;;;;;;19.23;9.90;;;;;;;14.28;50.72;94427.09;4999058;28;20216;-68
2023/04/03 07:21:48;;;;;;;18.45;9.95;;;;;;;14.41;50.21;94432.34;4998132;28;20794;-67
2023/04/03 07:24:15;;;;;;;29.08;10.73;;;;;;;14.63;50.12;94435.28;4998655;28;20299;-66
2023/04/03 07:26:41;;;;;;;16.55;8.73;;;;;;;14.84;49.76;94428.91;4998924;28;20325;-66
2023/04/03 07:29:08;;;;;;;18.50;7.82;;;;;;;15.05;49.36;94426.78;4998650;28;20299;-67
2023/04/03 07:31:35;;;;;;;14.70;7.57;;;;;;;15.49;48.36;94434.25;4997925;28;20208;-67
2023/04/03 07:34:03;;;;;;;14.48;7.90;;;;;;;15.89;47.84;94421.50;4998460;28;20242;-68
2023/04/03 07:36:33;;;;;;;16.98;6.85;;;;;;;16.18;46.83;94420.44;4996494;28;20232;-67
2023/04/03 07:38:59;;;;;;;13.73;7.15;;;;;;;16.91;45.41;94414.72;4997027;28;20240;-66
2023/04/03 07:41:26;;;;;;;31.25;13.95;;;;;;;17.60;43.84;94408.97;4996682;28;20278;-68
2023/04/03 07:43:53;;;;;;;24.88;12.13;;;;;;;18.07;42.47;94404.75;4999394;28;20325;-66
2023/04/03 07:46:20;;;;;;;12.27;6.75;;;;;;;18.40;42.24;94400.63;4996003;28;20691;-66
2023/04/03 07:48:47;;;;;;;13.05;7.30;;;;;;;18.80;41.20;94393.34;4999169;28;20218;-67
2023/04/03 07:51:16;;;;;;;12.65;6.85;;;;;;;19.28;40.12;94397.28;4997841;28;20223;-67
2023/04/03 07:53:42;;;;;;;17.42;7.32;;;;;;;19.46;38.91;94389.84;4997781;28;20204;-67
2023/04/03 07:56:10;;;;;;;11.65;6.88;;;;;;;19.25;39.13;94396.69;4997920;28;20231;-69
2023/04/03 07:58:37;;;;;;;17.45;8.98;;;;;;;18.60;39.91;94407.69;4998845;28;20208;-68
2023/04/03 08:01:04;;;;;;;13.60;7.10;;;;;;;18.03;41.36;94400.78;4997547;28;20666;-67
2023/04/03 08:03:31;;;;;;;14.70;8.55;;;;;;;17.86;42.02;94384.00;4998154;28;21159;-67
2023/04/03 08:06:04;;;;;;;16.92;9.57;;;;;;;17.77;42.24;94384.69;4997062;28;20737;-68
2023/04/03 08:08:32;;;;;;;18.95;9.48;;;;;;;17.74;42.14;94378.94;4997132;28;20235;-68
2023/04/03 08:11:02;;;;;;;11.20;9.45;;;;;;;17.72;42.36;94376.47;4998696;28;20230;-67
2023/04/03 08:13:30;;;;;;;18.08;10.32;;;;;;;17.67;41.58;94384.50;4997831;28;20695;-66
2023/04/03 08:15:58;;;;;;;14.52;10.05;;;;;;;17.51;42.15;94380.56;4996758;28;20270;-66
2023/04/03 08:18:26;;;;;;;18.40;10.18;;;;;;;17.03;42.49;94382.28;4997694;28;20197;-68
2023/04/03 08:20:53;;;;;;;10.40;8.27;;;;;;;16.67;43.30;94378.72;4998226;28;20208;-67
2023/04/03 08:23:20;;;;;;;11.85;9.30;;;;;;;16.38;44.26;94379.84;4998762;28;20298;-68
2023/04/03 08:25:48;;;;;;;27.10;9.48;;;;;;;16.27;44.62;94383.94;4999322;28;20219;-67
2023/04/03 08:28:15;;;;;;;12.00;7.53;;;;;;;16.13;45.02;94376.34;5002555;28;20255;-67
2023/04/03 08:30:43;;;;;;;15.85;7.30;;;;;;;15.86;45.80;94371.28;5002142;28;20212;-67
2023/04/03 08:33:11;;;;;;;11.88;7.95;;;;;;;16.40;44.40;94383.94;5001719;28;20319;-67
2023/04/03 08:35:41;;;;;;;16.48;9.15;;;;;;;16.50;43.95;94373.91;5001638;28;20304;-67
2023/04/03 08:38:07;;;;;;;13.15;7.57;;;;;;;16.43;44.39;94372.66;5001943;28;20206;-68
2023/04/03 08:40:34;;;;;;;12.02;7.15;;;;;;;16.23;44.50;94366.31;5002533;28;20825;-66
2023/04/03 08:43:18;;;;;;;10.43;7.28;;;;;;;15.97;45.64;94360.34;5001838;28;20324;-68
2023/04/03 08:45:48;;;;;;;9.95;7.45;;;;;;;15.64;46.01;94369.28;5001185;28;20232;-66
2023/04/03 08:48:20;;;;;;;14.70;7.95;;;;;;;15.10;47.13;94355.63;5001987;28;20224;-67
2023/04/03 08:50:50;;;;;;;14.13;8.13;;;;;;;15.01;47.88;94363.09;5002523;28;20342;-66
2023/04/03 08:53:21;;;;;;;19.35;8.20;;;;;;;14.93;48.04;94366.09;5000709;28;20603;-66
2023/04/03 08:55:50;;;;;;;13.10;7.88;;;;;;;14.62;48.22;94352.63;5000976;28;20219;-65
2023/04/03 08:58:22;;;;;;;15.38;9.32;;;;;;;14.50;49.14;94357.66;5002168;28;20204;-68
2023/04/03 09:00:52;;;;;;;14.27;9.00;;;;;;;14.51;49.10;94356.75;5002497;28;20326;-65
2023/04/03 09:03:21;;;;;;;14.13;8.98;;;;;;;14.52;49.29;94337.94;5001189;28;20232;-67
2023/04/03 09:05:52;;;;;;;19.30;8.05;;;;;;;14.63;48.78;94343.22;5000275;28;20212;-66
2023/04/03 09:08:28;;;;;;;11.23;8.20;;;;;;;14.48;49.43;94344.16;5000456;28;20228;-67
2023/04/03 09:11:08;;;;;;;12.88;9.60;;;;;;;14.39;49.69;94325.03;4998724;28;20254;-67
2023/04/03 09:13:42;;;;;;;22.45;8.55;;;;;;;14.61;49.35;94338.19;5001896;28;20204;-68
2023/04/03 09:16:22;;;;;;;12.35;9.30;;;;;;;14.79;49.06;94332.88;5000743;28;20220;-68
2023/04/03 09:18:58;;;;;;;17.10;9.80;;;;;;;14.71;48.68;94335.09;5001208;28;20291;-66
2023/04/03 09:21:28;;;;;;;22.65;9.05;;;;;;;14.65;48.29;94315.81;4999727;28;20211;-68
2023/04/03 09:23:58;;;;;;;14.30;8.27;;;;;;;14.67;48.88;94328.50;4998864;28;20208;-68
2023/04/03 09:26:30;;;;;;;16.15;8.57;;;;;;;14.80;48.92;94320.00;4999618;28;20236;-67
2023/04/03 09:29:02;;;;;;;10.25;8.77;;;;;;;14.83;48.53;94317.25;4999455;28;20323;-68
2023/04/03 09:31:36;;;;;;;15.18;9.93;;;;;;;14.65;48.89;94305.59;5001337;28;20678;-67
2023/04/03 09:34:09;;;;;;;21.58;9.05;;;;;;;14.90;48.69;94310.00;4999838;28;20730;-66
2023/04/03 09:36:45;;;;;;;19.00;9.25;;;;;;;15.18;48.36;94309.09;4999295;28;20295;-64
2023/04/03 09:39:14;;;;;;;14.38;9.57;;;;;;;15.12;47.85;94306.91;5000924;28;20232;-66
2023/04/03 09:41:41;;;;;;;18.23;10.23;;;;;;;15.02;48.79;94280.28;5000387;28;20224;-67
2023/04/03 09:44:22;;;;;;;26.10;10.70;;;;;;;15.15;48.62;94305.00;5000729;28;20235;-64
2023/04/03 09:46:49;;;;;;;12.93;9.68;;;;;;;15.10;48.75;94298.53;4999654;28;20299;-68
2023/04/03 09:49:15;;;;;;;13.10;9.75;;;;;;;15.32;48.40;94301.38;5000972;28;20269;-68
2023/04/03 09:51:43;;;;;;;13.57;9.82;;;;;;;15.19;48.83;94290.25;4999837;28;20778;-66
2023/04/03 09:54:40;;;;;;;15.27;9.73;;;;;;;15.21;48.79;94280.75;5001111;28;20228;-68
2023/04/03 09:57:11;;;;;;;15.55;10.52;;;;;;;15.67;47.77;94286.31;5000588;28;20302;-67
2023/04/03 09:59:44;;;;;;;21.58;10.93;;;;;;;15.84;47.13;94285.19;5000972;28;20643;-68
2023/04/03 10:02:28;;;;;;;20.83;11.75;;;;;;;15.81;46.87;94283.69;5000591;28;20318;-67
2023/04/03 10:04:55;;;;;;;14.93;8.77;;;;;;;15.39;47.08;94287.25;4999716;28;20212;-66
2023/04/03 10:07:34;;;;;;;22.25;9.90;;;;;;;14.92;48.70;94272.38;4999805;28;20692;-67
2023/04/03 10:10:03;;;;;;;10.20;8.75;;;;;;;14.79;49.38;94279.19;5000114;28;20207;-69
2023/04/03 10:12:30;;;;;;;10.18;8.15;;;;;;;14.52;49.49;94279.97;5000246;28;20200;-69
2023/04/03 10:15:00;;;;;;;14.30;9.45;;;;;;;14.22;49.95;94274.94;5000326;28;20281;-69
2023/04/03 10:17:41;;;;;;;12.30;8.23;;;;;;;13.97;49.89;94282.41;4999380;28;20205;-69
2023/04/03 10:20:22;;;;;;;15.73;9.30;;;;;;;13.68;51.38;94275.63;4999968;28;20228;-67
2023/04/03 10:23:00;;;;;;;13.32;7.75;;;;;;;13.39;51.80;94277.31;5000809;28;21217;-68
2023/04/03 10:25:33;;;;;;;14.07;7.82;;;;;;;13.26;52.57;94275.47;4999649;28;20294;-66
2023/04/03 10:28:03;;;;;;;13.52;9.20;;;;;;;13.22;52.87;94268.06;4999826;28;20338;-67
2023/04/03 10:30:45;;;;;;;15.70;9.88;;;;;;;13.41;53.19;94263.56;4999338;28;20243;-66
2023/04/03 10:33:32;;;;;;;20.85;9.35;;;;;;;13.41;53.07;94257.63;5000843;28;20307;-69
2023/04/03 10:36:13;;;;;;;20.25;8.48;;;;;;;13.40;52.87;94255.97;5000430;28;20235;-69
2023/04/03 10:38:49;;;;;;;12.02;7.85;;;;;;;13.35;53.17;94248.63;4998714;28;20255;-67
2023/04/03 10:41:21;;;;;;;9.63;8.18;;;;;;;13.42;52.61;94254.16;5000277;28;20294;-68
2023/04/03 10:43:55;;;;;;;7.15;6.45;;;;;;;13.45;52.32;94243.78;4999679;28;20293;-66
2023/04/03 10:46:30;;;;;;;8.75;6.68;;;;;;;13.53;52.24;94246.72;4999683;28;20223;-65
2023/04/03 10:49:11;;;;;;;4.22;3.65;;;;;;;13.57;51.26;94238.81;4998434;28;20341;-66
2023/04/03 10:51:42;;;;;;;11.73;5.15;;;;;;;13.79;51.15;94237.53;4999149;28;20239;-68
2023/04/03 10:54:13;;;;;;;11.43;5.03;;;;;;;13.86;51.33;94239.63;4999613;28;20235;-66
2023/04/03 10:56:43;;;;;;;12.68;5.70;;;;;;;13.90;50.79;94240.25;4998405;28;20212;-68
2023/04/03 10:59:26;;;;;;;5.25;4.05;;;;;;;13.85;50.78;94238.00;5000107;28;20709;-68
2023/04/03 11:01:57;;;;;;;5.47;4.95;;;;;;;13.71;51.31;94234.63;4999237;28;20683;-65
2023/04/03 11:04:27;;;;;;;4.82;4.43;;;;;;;13.59;52.07;94237.00;4999178;28;20211;-68
2023/04/03 11:07:04;;;;;;;13.50;5.07;;;;;;;13.42;52.29;94234.56;4999644;28;20246;-68
2023/04/03 11:09:37;;;;;;;7.50;4.25;;;;;;;13.41;52.69;94252.53;4997853;28;20318;-68
2023/04/03 11:12:11;;;;;;;5.85;4.63;;;;;;;13.30;54.01;94245.50;4999110;28;20204;-66
2023/04/03 11:14:39;;;;;;;4.15;3.75;;;;;;;13.13;54.54;94248.94;4998420;28;20581;-67
2023/04/03 11:17:17;;;;;;;10.02;4.40;;;;;;;13.01;54.82;94249.66;4999095;28;20205;-68
2023/04/03 11:19:49;;;;;;;6.93;4.05;;;;;;;12.94;56.35;94254.28;4998819;28;20204;-66
2023/04/03 11:22:24;;;;;;;7.90;3.83;;;;;;;12.86;57.66;94255.63;4998062;28;20320;-68
2023/04/03 11:25:00;;;;;;;6.22;4.32;;;;;;;12.80;57.78;94255.94;4999381;28;20204;-67
2023/04/03 11:27:33;;;;;;;4.90;3.60;;;;;;;12.79;57.76;94259.41;4998145;28;20673;-68
2023/04/03 11:30:00;;;;;;;6.57;3.72;;;;;;;12.65;58.54;94255.03;4998127;28;20252;-67
2023/04/03 11:32:49;;;;;;;8.32;3.70;;;;;;;12.59;59.81;94246.03;4998137;28;20245;-65
2023/04/03 11:35:19;;;;;;;3.10;2.35;;;;;;;12.53;61.40;94253.16;4997628;28;20204;-68
2023/04/03 11:37:48;;;;;;;3.10;2.38;;;;;;;12.57;61.21;94260.56;4998862;28;20201;-68
2023/04/03 11:40:24;;;;;;;5.20;2.78;;;;;;;12.51;62.48;94254.97;4998299;28;20248;-68